Time;durP1;ratioP1;P1;durP2;ratioP2;P2;SDS_P1;SDS_P2;PMS_P1;PMS_P2;Temp;Humidity;BMP_temperature;BMP_pressure;BME280_temperature;BME280_humidity;BME280_pressure;Samples;Min_cycle;Max_cycle;Signal;HPM_P1;HPM_P2
2022/08/20 00:00:21;;;;;;;6.80;4.80;;;;;;;19.76;72.53;100355.20;1782431;79;21123;-70
2022/08/20 00:02:59;;;;;;;7.33;5.57;;;;;;;19.69;72.73;100366.55;1777130;79;21569;-69
2022/08/20 00:05:31;;;;;;;8.17;5.20;;;;;;;19.64;72.87;100364.81;1782316;79;20988;-69
2022/08/20 00:07:59;;;;;;;6.87;5.00;;;;;;;19.61;73.01;100357.83;1755440;79;21010;-70
2022/08/20 00:10:27;;;;;;;5.37;4.70;;;;;;;19.60;73.14;100362.45;1753591;80;21081;-69
2022/08/20 00:12:54;;;;;;;7.03;5.17;;;;;;;19.58;73.22;100361.21;1796355;79;21459;-70
2022/08/20 00:15:25;;;;;;;6.40;5.07;;;;;;;19.55;73.33;100361.85;1792347;79;20923;-70
2022/08/20 00:17:53;;;;;;;10.23;5.45;;;;;;;19.54;73.45;100354.82;1787832;79;21003;-69
2022/08/20 00:20:21;;;;;;;6.93;4.93;;;;;;;19.55;73.49;100361.28;1783428;79;21101;-70
2022/08/20 00:22:48;;;;;;;7.57;4.83;;;;;;;19.57;73.48;100360.95;1774428;79;21615;-69
2022/08/20 00:25:15;;;;;;;5.67;4.90;;;;;;;19.58;73.39;100367.98;1758734;79;21774;-69
2022/08/20 00:27:42;;;;;;;7.23;4.30;;;;;;;19.59;73.42;100364.14;1754780;79;20991;-70
2022/08/20 00:30:11;;;;;;;5.60;4.57;;;;;;;19.57;73.41;100365.80;1747443;80;21557;-70
2022/08/20 00:32:56;;;;;;;5.37;4.50;;;;;;;19.56;73.41;100368.29;1774472;79;20960;-70
2022/08/20 00:35:27;;;;;;;6.80;4.17;;;;;;;19.57;73.35;100368.52;1776381;79;21003;-70
2022/08/20 00:37:54;;;;;;;5.87;4.35;;;;;;;19.59;73.34;100372.27;1758822;79;21137;-69
2022/08/20 00:40:26;;;;;;;6.47;4.30;;;;;;;19.58;73.27;100377.47;1776349;79;20945;-69
2022/08/20 00:42:57;;;;;;;7.70;4.23;;;;;;;19.56;73.27;100379.69;1780094;79;21031;-69
2022/08/20 00:45:28;;;;;;;5.67;4.23;;;;;;;19.52;73.29;100376.83;1804808;79;20960;-70
2022/08/20 00:47:55;;;;;;;5.20;4.17;;;;;;;19.48;73.31;100374.53;1776883;79;21015;-69
2022/08/20 00:50:34;;;;;;;5.17;4.03;;;;;;;19.49;73.33;100368.55;1780415;79;22024;-70
2022/08/20 00:53:03;;;;;;;4.93;4.00;;;;;;;19.49;73.28;100375.32;1783698;79;20984;-70
2022/08/20 00:55:30;;;;;;;5.30;4.20;;;;;;;19.51;73.27;100372.51;1754150;80;20999;-70
2022/08/20 00:58:01;;;;;;;5.33;4.20;;;;;;;19.55;73.28;100380.25;1759041;80;21087;-69
2022/08/20 01:00:36;;;;;;;7.40;4.50;;;;;;;19.56;73.25;100381.04;1779515;79;21620;-68
2022/08/20 01:03:07;;;;;;;6.80;4.40;;;;;;;19.56;73.25;100381.04;1786097;79;21126;-69
2022/08/20 01:05:39;;;;;;;5.20;4.07;;;;;;;19.55;73.34;100376.75;1776410;79;21860;-70
2022/08/20 01:08:06;;;;;;;7.90;4.90;;;;;;;19.53;73.49;100372.20;1759905;79;21100;-70
2022/08/20 01:10:37;;;;;;;6.47;4.57;;;;;;;19.49;73.72;100365.84;1755513;79;21018;-70
2022/08/20 01:13:09;;;;;;;7.63;5.07;;;;;;;19.46;73.98;100365.92;1778870;79;21443;-70
2022/08/20 01:15:40;;;;;;;7.30;4.83;;;;;;;19.43;74.16;100371.41;1804923;79;22069;-69
2022/08/20 01:18:10;;;;;;;7.87;4.80;;;;;;;19.41;74.30;100372.31;1798202;79;21045;-69
2022/08/20 01:20:40;;;;;;;6.87;4.93;;;;;;;19.42;74.37;100373.10;1775320;79;21038;-69
2022/08/20 01:23:28;;;;;;;6.10;4.93;;;;;;;19.40;74.44;100369.34;1776032;79;21546;-69
2022/08/20 01:26:24;;;;;;;7.03;5.23;;;;;;;19.40;74.46;100366.63;1760401;79;21584;-70
2022/08/20 01:29:12;;;;;;;6.07;5.20;;;;;;;19.38;74.50;100374.30;1784852;79;21686;-70
2022/08/20 01:31:40;;;;;;;7.17;5.23;;;;;;;19.35;74.54;100370.88;1783669;79;21008;-69
2022/08/20 01:34:10;;;;;;;7.37;4.83;;;;;;;19.33;74.61;100375.02;1778251;79;21047;-69
2022/08/20 01:36:49;;;;;;;7.45;4.95;;;;;;;19.32;74.67;100368.02;1778122;80;21028;-69
2022/08/20 01:39:20;;;;;;;7.10;5.10;;;;;;;19.31;74.75;100362.34;1779525;79;20951;-70
2022/08/20 01:42:14;;;;;;;6.15;4.67;;;;;;;19.30;74.78;100353.98;1782161;79;21757;-70
2022/08/20 01:44:43;;;;;;;6.60;4.93;;;;;;;19.29;74.77;100351.05;1775417;79;20959;-69
2022/08/20 01:47:18;;;;;;;6.03;5.00;;;;;;;19.25;74.75;100346.84;1781422;79;21129;-69
2022/08/20 01:49:49;;;;;;;7.47;5.00;;;;;;;19.23;74.83;100340.94;1775783;79;20968;-70
2022/08/20 01:52:34;;;;;;;6.33;5.08;;;;;;;19.21;74.89;100348.57;1779290;79;21130;-70
2022/08/20 01:55:01;;;;;;;8.43;5.60;;;;;;;19.19;74.94;100344.05;1781210;79;21422;-70
2022/08/20 01:57:28;;;;;;;7.40;5.23;;;;;;;19.16;75.05;100350.10;1777984;79;21041;-69
2022/08/20 01:59:55;;;;;;;8.03;5.13;;;;;;;19.14;75.15;100348.27;1785713;79;21179;-69
2022/08/20 02:02:23;;;;;;;6.53;5.03;;;;;;;19.14;75.22;100352.32;1781922;79;21003;-70
2022/08/20 02:04:50;;;;;;;6.20;5.30;;;;;;;19.15;75.29;100349.31;1792390;79;21038;-70
2022/08/20 02:07:20;;;;;;;8.27;5.43;;;;;;;19.15;75.29;100355.26;1764733;79;21129;-70
2022/08/20 02:09:47;;;;;;;8.23;5.53;;;;;;;19.14;75.38;100359.09;1718116;80;20995;-69
2022/08/20 02:12:14;;;;;;;8.23;5.67;;;;;;;19.18;75.42;100370.86;1753318;80;21061;-69
2022/08/20 02:14:45;;;;;;;7.23;5.10;;;;;;;19.16;75.44;100368.49;1756900;79;21015;-69
2022/08/20 02:17:12;;;;;;;6.13;5.53;;;;;;;19.19;75.45;100375.98;1777998;79;21157;-68
2022/08/20 02:19:56;;;;;;;9.10;5.57;;;;;;;19.19;75.40;100377.33;1785564;79;21227;-69
2022/08/20 02:22:41;;;;;;;5.70;5.10;;;;;;;19.18;75.32;100372.22;1778183;79;21521;-70
2022/08/20 02:25:10;;;;;;;7.03;5.50;;;;;;;19.18;75.34;100374.40;1785339;79;21024;-69
2022/08/20 02:27:39;;;;;;;7.57;5.43;;;;;;;19.15;75.38;100370.97;1804726;79;21020;-70
2022/08/20 02:30:18;;;;;;;6.77;6.00;;;;;;;19.30;75.09;100366.17;1801273;79;20983;-69
2022/08/20 02:32:45;;;;;;;6.70;5.00;;;;;;;19.66;73.84;100361.77;1779135;79;21248;-70
2022/08/20 02:35:12;;;;;;;7.67;5.73;;;;;;;19.55;73.74;100358.58;1783450;79;21093;-69
2022/08/20 02:37:41;;;;;;;5.37;4.70;;;;;;;19.56;73.71;100357.45;1782690;79;21046;-69
2022/08/20 02:40:12;;;;;;;8.50;5.63;;;;;;;19.54;73.66;100354.25;1779286;79;21022;-69
2022/08/20 02:42:41;;;;;;;;;;;;;;;19.45;73.65;100354.86;1798136;79;21026;-70
2022/08/20 02:45:11;;;;;;;7.30;5.60;;;;;;;19.18;74.51;100365.45;1804820;79;21148;-70
2022/08/20 02:47:38;;;;;;;6.93;5.73;;;;;;;19.29;74.05;100365.95;1772711;79;21391;-70
2022/08/20 02:50:05;;;;;;;7.43;5.73;;;;;;;19.01;74.60;100362.75;1786565;79;21026;-69
2022/08/20 02:52:33;;;;;;;7.87;6.00;;;;;;;18.83;75.27;100365.45;1780773;79;21059;-70
2022/08/20 02:55:00;;;;;;;6.13;5.47;;;;;;;18.78;75.57;100361.53;1775240;79;21035;-70
2022/08/20 02:57:27;;;;;;;8.67;5.63;;;;;;;18.75;75.76;100362.16;1783034;79;21091;-69
2022/08/20 02:59:53;;;;;;;8.20;5.47;;;;;;;18.72;75.94;100358.73;1716009;79;21057;-69
2022/08/20 03:02:20;;;;;;;7.37;5.93;;;;;;;18.72;76.08;100364.15;1758491;79;21096;-69
2022/08/20 03:04:47;;;;;;;8.20;5.30;;;;;;;18.75;76.19;100363.52;1782681;79;21055;-69
2022/08/20 03:07:15;;;;;;;6.93;5.30;;;;;;;18.78;76.24;100365.59;1781162;79;21090;-69
2022/08/20 03:09:41;;;;;;;6.07;5.10;;;;;;;18.76;76.14;100367.84;1781809;79;21755;-68
2022/08/20 03:12:08;;;;;;;5.97;5.07;;;;;;;18.73;76.22;100371.17;1795887;79;21058;-70
2022/08/20 03:14:36;;;;;;;7.20;4.83;;;;;;;18.71;76.37;100378.77;1787921;79;21220;-69
2022/08/20 03:17:03;;;;;;;5.47;4.70;;;;;;;18.72;76.60;100374.44;1776797;79;21012;-69
2022/08/20 03:19:30;;;;;;;6.33;5.20;;;;;;;18.77;76.71;100368.07;1754027;79;20999;-70
2022/08/20 03:21:56;;;;;;;5.47;4.83;;;;;;;18.77;76.62;100373.48;1753447;80;20969;-70
2022/08/20 03:24:23;;;;;;;7.60;5.20;;;;;;;18.78;76.61;100370.22;1773230;79;21035;-70
2022/08/20 03:26:49;;;;;;;6.20;4.97;;;;;;;18.79;76.63;100368.56;1776276;79;21621;-69
2022/08/20 03:29:16;;;;;;;6.13;4.73;;;;;;;18.80;76.62;100372.06;1779019;79;21562;-70
2022/08/20 03:31:43;;;;;;;6.80;4.93;;;;;;;18.81;76.64;100375.00;1783526;79;21077;-69
2022/08/20 03:34:10;;;;;;;6.70;5.37;;;;;;;18.81;76.71;100372.29;1756793;79;21875;-70
2022/08/20 03:36:38;;;;;;;7.87;5.33;;;;;;;18.86;76.83;100374.86;1777946;79;21031;-69
2022/08/20 03:39:06;;;;;;;7.37;5.03;;;;;;;18.89;76.78;100368.25;1757347;79;20989;-69
2022/08/20 03:41:33;;;;;;;6.93;5.10;;;;;;;18.91;76.75;100363.86;1754376;79;21487;-69
2022/08/20 03:44:00;;;;;;;6.13;4.87;;;;;;;19.00;76.78;100370.08;1777297;79;22019;-68
2022/08/20 03:46:27;;;;;;;7.23;5.50;;;;;;;19.04;76.71;100364.83;1782644;79;21240;-69
2022/08/20 03:48:54;;;;;;;7.97;5.77;;;;;;;19.09;76.64;100371.45;1800332;79;21054;-68
2022/08/20 03:51:21;;;;;;;8.47;5.20;;;;;;;19.13;76.57;100377.81;1781689;79;21123;-69
2022/08/20 03:53:50;;;;;;;6.13;5.53;;;;;;;19.12;76.43;100379.73;1782619;79;21050;-70
2022/08/20 03:56:19;;;;;;;6.60;5.73;;;;;;;19.11;76.47;100375.97;1754447;79;21039;-69
2022/08/20 03:58:45;;;;;;;7.90;6.27;;;;;;;19.14;76.45;100369.92;1759709;79;21347;-69
2022/08/20 04:01:13;;;;;;;6.90;6.13;;;;;;;19.09;76.39;100364.12;1757574;80;21049;-70
2022/08/20 04:03:42;;;;;;;7.47;6.30;;;;;;;19.11;76.58;100364.58;1777003;79;21078;-70
2022/08/20 04:06:09;;;;;;;6.33;5.67;;;;;;;19.16;76.66;100367.14;1759318;79;21494;-69
2022/08/20 04:08:39;;;;;;;7.07;6.10;;;;;;;19.26;76.69;100372.79;1758881;79;21125;-70
2022/08/20 04:11:08;;;;;;;6.70;5.33;;;;;;;19.25;76.48;100368.50;1776304;79;20987;-70
2022/08/20 04:13:35;;;;;;;7.57;6.57;;;;;;;19.24;76.45;100372.30;1758728;79;21041;-69
2022/08/20 04:16:07;;;;;;;7.53;6.43;;;;;;;19.26;76.49;100367.38;1754692;79;21081;-69
2022/08/20 04:18:35;;;;;;;6.50;5.90;;;;;;;19.30;76.36;100369.67;1793486;79;20940;-69
2022/08/20 04:21:04;;;;;;;8.03;6.07;;;;;;;19.34;76.36;100371.97;1779744;79;20979;-70
2022/08/20 04:23:35;;;;;;;7.47;5.57;;;;;;;19.41;76.32;100372.84;1787705;79;22129;-69
2022/08/20 04:26:02;;;;;;;6.23;5.63;;;;;;;19.49;76.18;100370.70;1761065;79;21102;-69
2022/08/20 04:28:37;;;;;;;6.70;6.00;;;;;;;19.51;75.87;100388.77;1736857;80;21112;-69
2022/08/20 04:31:04;;;;;;;6.93;5.03;;;;;;;19.51;75.79;100379.84;1748622;79;21042;-69
2022/08/20 04:33:31;;;;;;;6.60;5.23;;;;;;;19.55;75.68;100379.46;1782869;79;21027;-70
2022/08/20 04:36:04;;;;;;;7.63;6.00;;;;;;;19.83;74.84;100373.91;1778818;79;21212;-68
2022/08/20 04:38:26;;;;;;;6.60;5.53;;;;;;;19.97;74.08;100372.91;1751922;79;21109;-69
2022/08/20 04:40:56;;;;;;;7.03;5.80;;;;;;;20.02;73.82;100371.39;1784626;79;21038;-70
2022/08/20 04:43:25;;;;;;;8.97;6.17;;;;;;;20.05;73.53;100374.80;1781378;79;20971;-69
2022/08/20 04:45:53;;;;;;;7.23;5.97;;;;;;;20.09;73.47;100373.03;1783208;79;21082;-69
2022/08/20 04:48:22;;;;;;;7.23;5.83;;;;;;;20.19;73.38;100367.80;1782920;79;21158;-69
2022/08/20 04:50:52;;;;;;;6.60;5.90;;;;;;;19.82;74.40;100365.55;1782908;79;22397;-69
2022/08/20 04:53:22;;;;;;;6.60;5.70;;;;;;;20.22;73.82;100371.22;1773850;79;21098;-69
2022/08/20 04:55:49;;;;;;;6.27;5.00;;;;;;;20.42;73.34;100366.98;1777726;79;21117;-69
2022/08/20 04:58:21;;;;;;;6.80;5.70;;;;;;;20.50;72.95;100372.36;1783432;79;20932;-69
2022/08/20 05:00:49;;;;;;;6.78;5.67;;;;;;;20.56;72.79;100368.34;1779828;79;21208;-70
2022/08/20 05:03:16;;;;;;;6.83;6.13;;;;;;;20.25;73.69;100373.28;1772866;81;20988;-70
2022/08/20 05:05:44;;;;;;;7.87;5.63;;;;;;;20.24;73.94;100367.07;1772690;80;21130;-69
2022/08/20 05:08:11;;;;;;;7.20;5.50;;;;;;;20.29;73.99;100365.52;1783289;79;21019;-69
2022/08/20 05:10:39;;;;;;;7.10;5.93;;;;;;;20.70;73.09;100359.19;1752152;80;21061;-70
2022/08/20 05:13:08;;;;;;;6.80;5.80;;;;;;;20.51;73.64;100351.48;1759531;79;21855;-70
2022/08/20 05:15:35;;;;;;;7.30;5.80;;;;;;;20.61;73.55;100348.38;1779596;79;21023;-69
2022/08/20 05:18:04;;;;;;;5.50;4.87;;;;;;;21.26;71.88;100345.55;1779991;79;20952;-69
2022/08/20 05:20:37;;;;;;;5.87;5.00;;;;;;;21.36;71.56;100343.58;1778508;79;21081;-70
2022/08/20 05:23:10;;;;;;;6.40;5.70;;;;;;;21.53;71.02;100340.11;1718800;82;21006;-70
2022/08/20 05:25:38;;;;;;;6.50;5.37;;;;;;;21.67;70.34;100342.52;1775623;79;21786;-69
2022/08/20 05:28:11;;;;;;;6.53;4.93;;;;;;;21.86;69.80;100341.99;1783683;79;21573;-68
2022/08/20 05:30:40;;;;;;;5.10;4.47;;;;;;;21.97;69.15;100339.61;1775775;79;21016;-70
2022/08/20 05:33:10;;;;;;;5.87;4.80;;;;;;;22.05;68.51;100338.73;1782107;79;20956;-69
2022/08/20 05:35:37;;;;;;;5.50;4.80;;;;;;;22.06;68.12;100336.23;1783677;79;21082;-68
2022/08/20 05:38:07;;;;;;;5.20;4.37;;;;;;;22.10;67.87;100339.84;1783490;79;21414;-69
2022/08/20 05:40:34;;;;;;;5.30;4.47;;;;;;;22.17;67.65;100341.46;1777109;79;21030;-69
2022/08/20 05:43:03;;;;;;;6.23;4.20;;;;;;;22.26;67.54;100333.20;1743278;81;21030;-69
2022/08/20 05:45:31;;;;;;;4.97;3.80;;;;;;;22.40;67.38;100336.92;1746363;80;21046;-70
2022/08/20 05:48:10;;;;;;;5.33;4.27;;;;;;;22.52;67.08;100334.77;1752224;79;20952;-70
2022/08/20 05:50:39;;;;;;;4.87;4.07;;;;;;;22.56;66.58;100335.08;1755005;79;21257;-69
2022/08/20 05:53:06;;;;;;;5.43;3.83;;;;;;;22.57;66.33;100335.30;1744029;81;20991;-70
2022/08/20 05:55:32;;;;;;;5.50;4.30;;;;;;;22.61;66.21;100338.95;1747413;81;21510;-69
2022/08/20 05:58:05;;;;;;;5.33;4.10;;;;;;;22.68;65.80;100330.20;1744226;81;21063;-69
2022/08/20 06:00:33;;;;;;;4.47;3.80;;;;;;;22.71;65.31;100328.94;1749145;79;21090;-69
2022/08/20 06:05:45;;;;;;;5.30;3.90;;;;;;;22.81;65.08;100328.23;1743778;81;20960;-70
2022/08/20 06:08:13;;;;;;;4.90;3.90;;;;;;;22.98;65.06;100332.06;1789136;78;21523;-69
2022/08/20 06:10:41;;;;;;;4.53;3.97;;;;;;;23.13;65.02;100329.97;1753891;79;21038;-67
2022/08/20 06:13:07;;;;;;;4.57;3.90;;;;;;;23.33;64.68;100329.53;1756399;79;21029;-69
2022/08/20 06:15:34;;;;;;;5.20;3.60;;;;;;;23.53;64.33;100331.81;1781879;79;21217;-69
2022/08/20 06:18:03;;;;;;;3.93;3.30;;;;;;;23.76;63.80;100327.16;1781391;79;21039;-70
2022/08/20 06:20:30;;;;;;;3.63;2.97;;;;;;;23.94;62.48;100329.73;1781109;79;21032;-69
2022/08/20 06:22:58;;;;;;;5.30;3.67;;;;;;;23.95;61.26;100335.40;1777295;79;20998;-69
2022/08/20 06:25:25;;;;;;;4.13;3.30;;;;;;;23.94;61.09;100335.77;1783772;79;21039;-70
2022/08/20 06:27:52;;;;;;;4.10;3.40;;;;;;;23.96;60.68;100339.73;1783107;79;21435;-70
2022/08/20 06:30:18;;;;;;;4.33;3.10;;;;;;;23.93;60.52;100341.80;1755080;79;21006;-69
2022/08/20 06:32:48;;;;;;;4.27;3.27;;;;;;;23.92;60.54;100340.77;1758492;79;21085;-69
2022/08/20 06:35:14;;;;;;;5.20;3.37;;;;;;;23.91;60.72;100341.92;1783836;79;21027;-70
2022/08/20 06:37:41;;;;;;;4.30;3.50;;;;;;;24.00;60.50;100343.33;1779378;79;21145;-70
2022/08/20 06:40:17;;;;;;;4.03;3.27;;;;;;;23.99;60.29;100343.13;1783470;79;21778;-70
2022/08/20 06:42:44;;;;;;;3.80;3.00;;;;;;;24.03;60.23;100349.45;1776971;79;21483;-69
2022/08/20 06:45:15;;;;;;;4.53;3.10;;;;;;;24.13;60.04;100348.70;1777500;79;21576;-69
2022/08/20 06:47:43;;;;;;;4.77;2.80;;;;;;;24.19;59.68;100348.08;1780787;79;21071;-70
2022/08/20 06:50:14;;;;;;;4.43;2.97;;;;;;;24.26;59.34;100340.05;1774947;79;21034;-70
2022/08/20 06:52:41;;;;;;;5.53;2.93;;;;;;;24.40;59.18;100344.25;1796460;79;21088;-70
2022/08/20 06:55:09;;;;;;;4.57;2.80;;;;;;;24.52;58.68;100346.33;1771293;79;21485;-69
2022/08/20 06:57:37;;;;;;;4.10;3.03;;;;;;;24.64;58.26;100343.25;1731742;81;21129;-70
2022/08/20 07:00:07;;;;;;;4.20;2.70;;;;;;;24.73;57.78;100347.94;1766608;79;20999;-70
2022/08/20 07:02:35;;;;;;;3.30;2.70;;;;;;;24.82;57.96;100344.43;1768167;79;21113;-69
2022/08/20 07:05:04;;;;;;;4.37;3.23;;;;;;;24.91;56.64;100345.02;1804139;79;21276;-69
2022/08/20 07:07:31;;;;;;;4.47;3.20;;;;;;;24.89;56.75;100344.57;1789361;79;21585;-70
2022/08/20 07:10:09;;;;;;;4.43;2.80;;;;;;;24.85;56.35;100347.81;1753575;79;21138;-69
2022/08/20 07:12:36;;;;;;;4.03;2.73;;;;;;;24.84;56.14;100348.94;1753451;81;20976;-70
2022/08/20 07:15:04;;;;;;;4.23;2.63;;;;;;;24.81;56.19;100349.69;1771740;81;20945;-69
2022/08/20 07:17:31;;;;;;;3.40;2.80;;;;;;;24.89;56.28;100341.84;1776802;79;21740;-68
2022/08/20 07:20:00;;;;;;;4.47;3.10;;;;;;;25.08;55.82;100345.16;1783040;79;21042;-69
2022/08/20 07:22:27;;;;;;;3.30;2.70;;;;;;;25.23;55.15;100338.04;1756625;79;20975;-69
2022/08/20 07:24:54;;;;;;;4.67;2.77;;;;;;;25.25;54.64;100339.84;1779225;79;21039;-69
2022/08/20 07:27:22;;;;;;;4.00;3.20;;;;;;;25.12;54.82;100349.35;1797554;79;21050;-70
2022/08/20 07:32:38;;;;;;;3.90;2.90;;;;;;;25.17;54.77;100347.68;1722944;79;21035;-70
2022/08/20 07:35:11;;;;;;;3.70;2.83;;;;;;;25.23;54.97;100343.51;1783170;79;21675;-70
2022/08/20 07:37:41;;;;;;;5.13;3.00;;;;;;;25.31;54.76;100341.72;1768064;79;21325;-69
2022/08/20 07:40:13;;;;;;;5.17;3.17;;;;;;;25.45;54.25;100338.66;1771789;79;21102;-70
2022/08/20 07:42:40;;;;;;;;;;;;;;;25.51;53.84;100336.42;1747079;79;22141;-70
2022/08/20 07:45:09;;;;;;;5.47;2.93;;;;;;;25.37;54.04;100334.23;1779993;79;20217;-71
2022/08/20 07:47:38;;;;;;;3.57;2.57;;;;;;;25.39;53.95;100334.64;1753645;79;21015;-70
2022/08/20 07:50:07;;;;;;;3.67;2.60;;;;;;;25.45;53.58;100333.19;1739983;79;21427;-70
2022/08/20 07:52:34;;;;;;;3.00;2.10;;;;;;;25.59;53.80;100334.59;1760869;80;21093;-69
2022/08/20 07:55:06;;;;;;;3.80;1.97;;;;;;;25.68;53.32;100335.16;1787282;79;21069;-70
2022/08/20 07:57:32;;;;;;;3.57;2.77;;;;;;;25.73;52.29;100333.47;1789789;79;21078;-70
2022/08/20 07:59:59;;;;;;;3.37;2.23;;;;;;;25.74;52.53;100333.12;1780165;79;21038;-71
2022/08/20 08:02:27;;;;;;;2.60;2.10;;;;;;;25.73;52.67;100326.08;1779606;79;21043;-71
2022/08/20 08:04:54;;;;;;;3.50;2.00;;;;;;;25.75;52.61;100325.70;1763942;79;21070;-70
2022/08/20 08:07:21;;;;;;;3.37;2.30;;;;;;;25.78;52.66;100330.44;1778236;79;21140;-69
2022/08/20 08:09:48;;;;;;;2.90;1.97;;;;;;;25.86;52.33;100323.16;1781752;79;21047;-70
2022/08/20 08:12:16;;;;;;;3.00;2.03;;;;;;;25.99;52.14;100320.44;1755374;80;21006;-70
2022/08/20 08:14:43;;;;;;;3.13;1.97;;;;;;;26.06;52.06;100318.39;1751463;79;21494;-70
2022/08/20 08:17:11;;;;;;;2.40;1.80;;;;;;;26.10;51.63;100319.26;1773952;79;21011;-69
2022/08/20 08:19:43;;;;;;;3.23;2.10;;;;;;;26.20;51.30;100316.67;1784673;79;21797;-69
2022/08/20 08:22:14;;;;;;;2.50;1.93;;;;;;;26.31;50.81;100318.19;1782018;79;21086;-70
2022/08/20 08:24:42;;;;;;;2.70;2.00;;;;;;;26.42;50.24;100312.30;1792190;79;21038;-70
2022/08/20 08:27:09;;;;;;;1.90;1.40;;;;;;;26.52;50.14;100305.98;1804676;79;21380;-70
2022/08/20 08:29:36;;;;;;;2.73;1.70;;;;;;;26.68;49.62;100302.47;1797559;79;21438;-69
2022/08/20 08:32:05;;;;;;;1.67;1.40;;;;;;;26.76;48.92;100301.41;1804947;79;21173;-70
2022/08/20 08:34:34;;;;;;;2.57;1.80;;;;;;;26.70;48.90;100301.53;1798136;79;21739;-71
2022/08/20 08:37:01;;;;;;;2.00;1.57;;;;;;;26.60;48.91;100301.59;1782827;79;21125;-70
2022/08/20 08:39:30;;;;;;;2.07;1.60;;;;;;;26.60;48.97;100302.19;1782781;79;20980;-70
2022/08/20 08:41:57;;;;;;;1.97;1.50;;;;;;;26.58;48.70;100296.28;1777236;79;20932;-71
2022/08/20 08:44:31;;;;;;;2.37;1.50;;;;;;;26.58;48.82;100301.17;1790084;79;21114;-70
2022/08/20 08:47:12;;;;;;;1.50;1.30;;;;;;;26.66;49.11;100290.53;1790336;79;20920;-72
2022/08/20 08:49:36;;;;;;;2.57;1.57;;;;;;;26.84;48.80;100290.73;1782257;79;20967;-69
2022/08/20 08:52:21;;;;;;;4.27;1.60;;;;;;;27.05;48.57;100289.41;1759956;79;21076;-69
2022/08/20 08:54:52;;;;;;;2.20;1.50;;;;;;;27.23;47.93;100284.92;1759804;79;21065;-70
2022/08/20 08:57:20;;;;;;;1.90;1.40;;;;;;;27.28;47.81;100285.18;1784182;79;21850;-69
2022/08/20 08:59:58;;;;;;;3.10;1.63;;;;;;;27.41;47.08;100289.22;1757400;79;21179;-69
2022/08/20 09:02:26;;;;;;;2.27;1.70;;;;;;;27.47;46.03;100284.94;1772869;79;21055;-70
2022/08/20 09:04:55;;;;;;;1.90;1.50;;;;;;;27.43;45.81;100289.61;1781280;79;21070;-70
2022/08/20 09:07:24;;;;;;;1.73;1.40;;;;;;;27.38;46.33;100286.42;1800145;79;21050;-70
2022/08/20 09:09:50;;;;;;;2.20;1.40;;;;;;;27.40;46.21;100292.33;1805418;79;21183;-71
2022/08/20 09:12:21;;;;;;;2.50;1.60;;;;;;;27.51;46.19;100291.27;1777388;79;21050;-70
2022/08/20 09:14:49;;;;;;;3.47;1.60;;;;;;;27.61;45.87;100285.67;1773498;81;21003;-70
2022/08/20 09:17:18;;;;;;;1.87;1.50;;;;;;;27.71;45.69;100291.83;1774683;79;21050;-70
2022/08/20 09:19:45;;;;;;;2.60;1.60;;;;;;;27.81;45.26;100293.11;1805075;79;21070;-70
2022/08/20 09:22:15;;;;;;;2.13;1.40;;;;;;;27.85;45.11;100297.26;1799282;79;21111;-70
2022/08/20 09:24:42;;;;;;;2.20;1.60;;;;;;;27.88;44.81;100297.87;1804776;79;21027;-70
2022/08/20 09:27:10;;;;;;;2.30;1.60;;;;;;;27.94;44.78;100291.64;1804120;79;21097;-69
2022/08/20 09:29:37;;;;;;;2.03;1.40;;;;;;;27.82;44.97;100298.80;1784125;79;21061;-70
2022/08/20 09:32:11;;;;;;;2.10;1.43;;;;;;;27.88;44.78;100294.53;1780337;79;21094;-70
2022/08/20 09:34:39;;;;;;;1.80;1.30;;;;;;;27.95;44.20;100296.55;1777064;79;21775;-69
2022/08/20 09:37:08;;;;;;;1.67;1.33;;;;;;;28.04;44.04;100297.01;1776300;79;21027;-70
2022/08/20 09:39:35;;;;;;;2.10;1.37;;;;;;;28.14;43.89;100303.16;1779883;79;20998;-70
2022/08/20 09:42:15;;;;;;;1.70;1.30;;;;;;;28.16;43.39;100306.28;1783075;79;21166;-69
2022/08/20 09:44:42;;;;;;;1.77;1.27;;;;;;;28.07;43.50;100300.36;1779318;79;21066;-70
2022/08/20 09:47:09;;;;;;;2.00;1.30;;;;;;;28.07;43.61;100297.62;1771467;79;21082;-69
2022/08/20 09:49:38;;;;;;;1.80;1.43;;;;;;;28.08;43.84;100295.06;1783557;79;21039;-69
2022/08/20 09:52:07;;;;;;;3.80;1.60;;;;;;;28.00;43.75;100292.05;1783170;79;21585;-70
2022/08/20 09:54:34;;;;;;;2.60;1.50;;;;;;;27.94;43.87;100294.39;1797744;79;20940;-69
2022/08/20 09:57:04;;;;;;;1.90;1.40;;;;;;;27.94;43.85;100294.98;1804831;79;21078;-69
2022/08/20 09:59:31;;;;;;;2.08;1.62;;;;;;;27.94;43.89;100294.39;1762975;79;21227;-69
2022/08/20 10:01:58;;;;;;;2.07;1.60;;;;;;;27.90;44.01;100302.38;1730718;80;21592;-69
2022/08/20 10:04:25;;;;;;;2.07;1.50;;;;;;;27.90;44.30;100303.75;1783305;79;21078;-70
2022/08/20 10:06:52;;;;;;;2.27;1.77;;;;;;;27.96;44.39;100295.37;1777128;79;21508;-70
2022/08/20 10:09:18;;;;;;;3.20;1.60;;;;;;;27.93;44.09;100301.62;1783960;79;20909;-69
2022/08/20 10:11:45;;;;;;;2.33;1.70;;;;;;;27.86;44.24;100301.56;1798239;79;21881;-70
2022/08/20 10:14:12;;;;;;;2.23;1.73;;;;;;;27.83;44.53;100303.89;1794424;79;21042;-70
2022/08/20 10:16:39;;;;;;;2.70;1.70;;;;;;;27.89;44.55;100303.55;1780234;79;21035;-70
2022/08/20 10:19:06;;;;;;;2.87;1.60;;;;;;;27.98;44.39;100293.83;1787408;79;21018;-70
2022/08/20 10:21:33;;;;;;;3.10;1.60;;;;;;;28.10;44.04;100298.23;1740611;80;20943;-70
2022/08/20 10:24:00;;;;;;;1.47;1.37;;;;;;;28.20;44.18;100298.06;1748971;82;21500;-69
2022/08/20 10:26:26;;;;;;;2.20;1.60;;;;;;;28.32;43.97;100297.75;1753840;80;21018;-69
2022/08/20 10:28:54;;;;;;;2.37;1.70;;;;;;;28.46;43.97;100293.76;1758093;79;21524;-70
2022/08/20 10:31:20;;;;;;;2.47;1.50;;;;;;;28.67;44.07;100293.05;1790210;79;21012;-69
2022/08/20 10:33:47;;;;;;;3.33;1.80;;;;;;;28.94;42.83;100297.66;1782804;79;20952;-70
2022/08/20 10:36:16;;;;;;;1.83;1.60;;;;;;;29.07;42.71;100296.75;1802333;79;21591;-70
2022/08/20 10:38:43;;;;;;;3.03;1.90;;;;;;;29.01;42.72;100303.80;1783387;79;21039;-68
2022/08/20 10:41:10;;;;;;;2.93;1.47;;;;;;;28.82;42.97;100300.75;1783189;79;21688;-69
2022/08/20 10:43:37;;;;;;;2.27;1.50;;;;;;;28.70;42.55;100296.41;1781389;79;21188;-69
2022/08/20 10:46:04;;;;;;;2.00;1.50;;;;;;;28.92;42.35;100296.47;1783148;79;21027;-68
2022/08/20 10:48:31;;;;;;;2.13;1.20;;;;;;;29.26;41.99;100294.24;1799810;79;21243;-70
2022/08/20 10:50:58;;;;;;;1.87;1.40;;;;;;;29.47;40.99;100298.97;1804949;79;20936;-68
2022/08/20 10:53:24;;;;;;;2.33;1.60;;;;;;;29.58;41.19;100287.97;1791655;79;21047;-69
2022/08/20 10:55:53;;;;;;;2.17;1.63;;;;;;;29.72;41.61;100287.23;1781049;79;21499;-70
2022/08/20 10:58:19;;;;;;;2.17;1.70;;;;;;;29.84;40.63;100284.84;1784173;79;21023;-70
2022/08/20 11:00:46;;;;;;;2.07;1.50;;;;;;;29.94;40.13;100288.76;1783309;79;21508;-69
2022/08/20 11:03:13;;;;;;;1.80;1.40;;;;;;;30.09;40.15;100284.03;1762552;79;21003;-69
2022/08/20 11:05:40;;;;;;;1.93;1.30;;;;;;;30.29;40.65;100281.66;1783109;79;21027;-69
2022/08/20 11:08:07;;;;;;;2.73;1.50;;;;;;;30.37;39.87;100285.94;1791834;79;21003;-69
2022/08/20 11:10:34;;;;;;;1.90;1.50;;;;;;;30.27;39.19;100280.66;1793053;79;21057;-69
2022/08/20 11:13:04;;;;;;;4.10;1.50;;;;;;;30.02;38.86;100283.45;1735133;81;21176;-71
2022/08/20 11:15:33;;;;;;;1.80;1.60;;;;;;;29.79;40.23;100288.59;1775416;79;21043;-69
2022/08/20 11:18:01;;;;;;;1.90;1.50;;;;;;;29.62;40.14;100281.92;1779623;79;20991;-70
2022/08/20 11:20:27;;;;;;;2.00;1.57;;;;;;;29.65;39.95;100276.41;1787663;79;21526;-69
2022/08/20 11:22:54;;;;;;;3.40;1.70;;;;;;;29.62;40.03;100277.80;1759250;79;21038;-70
2022/08/20 11:25:21;;;;;;;1.73;1.40;;;;;;;29.67;40.07;100271.28;1783370;79;21523;-69
2022/08/20 11:27:49;;;;;;;2.07;1.50;;;;;;;29.71;39.96;100272.66;1780382;79;21408;-69
2022/08/20 11:30:24;;;;;;;2.13;1.50;;;;;;;29.65;40.18;100265.41;1784015;79;21733;-70
2022/08/20 11:32:51;;;;;;;1.60;1.33;;;;;;;29.65;40.44;100268.75;1782128;79;21050;-68
2022/08/20 11:35:20;;;;;;;2.80;1.70;;;;;;;29.66;40.27;100266.97;1760106;79;21086;-69
2022/08/20 11:37:50;;;;;;;2.35;1.67;;;;;;;29.79;40.41;100266.58;1777483;79;21015;-68
2022/08/20 11:40:17;;;;;;;2.00;1.53;;;;;;;29.95;39.49;100264.20;1754345;79;21498;-69